Time;durP1;ratioP1;P1;durP2;ratioP2;P2;SDS_P1;SDS_P2;PMS_P1;PMS_P2;Temp;Humidity;BMP_temperature;BMP_pressure;BME280_temperature;BME280_humidity;BME280_pressure;Samples;Min_cycle;Max_cycle;Signal;HPM_P1;HPM_P2
2023/09/18 00:00:46;;;;;;;7.95;3.00;;;;;;;;;;4996263;28;20484;-78
2023/09/18 00:03:31;;;;;;;5.65;2.90;;;;;;;;;;4997028;28;20500;-67
2023/09/18 00:06:16;;;;;;;6.50;3.60;;;;;;;;;;4996875;28;20042;-70
2023/09/18 00:09:02;;;;;;;7.03;3.47;;;;;;;;;;4997201;28;20063;-69
2023/09/18 00:11:47;;;;;;;6.20;3.65;;;;;;;;;;4997322;28;20033;-70
2023/09/18 00:14:32;;;;;;;7.97;3.65;;;;;;;;;;4996941;28;20511;-69
2023/09/18 00:17:19;;;;;;;6.28;3.03;;;;;;;;;;4996303;28;20366;-69
2023/09/18 00:20:07;;;;;;;5.25;3.08;;;;;;;;;;4994917;28;20038;-68
2023/09/18 00:22:55;;;;;;;7.45;3.00;;;;;;;;;;4996648;28;20050;-78
2023/09/18 00:25:42;;;;;;;5.00;2.92;;;;;;;;;;4995735;28;20033;-69
2023/09/18 00:28:27;;;;;;;8.60;3.05;;;;;;;;;;4987080;28;20042;-69
2023/09/18 00:31:12;;;;;;;6.90;3.53;;;;;;;;;;4996686;28;20095;-68
2023/09/18 00:33:57;;;;;;;6.40;2.95;;;;;;;;;;4997224;28;20092;-68
2023/09/18 00:36:43;;;;;;;6.25;3.10;;;;;;;;;;4996615;28;20032;-69
2023/09/18 00:39:28;;;;;;;5.13;3.38;;;;;;;;;;4997124;28;20044;-69
2023/09/18 00:42:13;;;;;;;7.35;3.17;;;;;;;;;;4985442;28;20436;-67
2023/09/18 00:44:58;;;;;;;4.90;2.92;;;;;;;;;;4979954;28;20046;-77
2023/09/18 00:47:44;;;;;;;5.18;3.10;;;;;;;;;;4997223;28;20045;-76
2023/09/18 00:50:29;;;;;;;5.03;2.88;;;;;;;;;;4983726;28;20500;-76
2023/09/18 00:53:17;;;;;;;4.93;2.80;;;;;;;;;;5000398;28;20038;-77
2023/09/18 00:56:03;;;;;;;5.32;3.53;;;;;;;;;;4996791;28;20041;-78
2023/09/18 00:58:48;;;;;;;5.45;2.72;;;;;;;;;;4996514;28;20060;-68
2023/09/18 01:01:34;;;;;;;5.75;2.45;;;;;;;;;;4996356;28;20030;-70
2023/09/18 01:04:19;;;;;;;8.38;4.25;;;;;;;;;;4996652;28;20030;-69
2023/09/18 01:07:04;;;;;;;5.93;2.80;;;;;;;;;;4995948;28;20037;-68
2023/09/18 01:09:50;;;;;;;7.32;3.63;;;;;;;;;;4996262;28;20662;-70
2023/09/18 01:12:44;;;;;;;5.57;3.17;;;;;;;;;;4996074;28;20034;-69
2023/09/18 01:15:35;;;;;;;6.75;3.25;;;;;;;;;;4996331;28;20044;-70
2023/09/18 01:18:20;;;;;;;4.32;3.08;;;;;;;;;;4995901;28;20084;-72
2023/09/18 01:21:05;;;;;;;5.20;3.38;;;;;;;;;;4995235;28;20045;-70
2023/09/18 01:23:51;;;;;;;5.57;2.92;;;;;;;;;;4993047;28;20441;-69
2023/09/18 01:26:36;;;;;;;6.80;3.55;;;;;;;;;;4995968;28;20454;-69
2023/09/18 01:29:21;;;;;;;4.18;2.72;;;;;;;;;;4995705;28;20026;-69
2023/09/18 01:32:07;;;;;;;4.57;3.00;;;;;;;;;;4995980;28;20048;-69
2023/09/18 01:34:53;;;;;;;3.58;2.50;;;;;;;;;;4982228;28;20088;-70
2023/09/18 01:37:39;;;;;;;4.88;3.10;;;;;;;;;;4995504;28;20041;-67
2023/09/18 01:40:25;;;;;;;6.15;2.83;;;;;;;;;;4995620;28;20053;-77
2023/09/18 01:43:10;;;;;;;5.75;3.67;;;;;;;;;;4995524;28;20125;-77
2023/09/18 01:45:55;;;;;;;5.97;3.38;;;;;;;;;;4997528;28;20384;-77
2023/09/18 01:48:45;;;;;;;6.38;2.97;;;;;;;;;;4982753;28;20048;-77
2023/09/18 01:51:30;;;;;;;4.45;2.95;;;;;;;;;;4995515;28;20042;-77
2023/09/18 01:54:15;;;;;;;6.13;2.83;;;;;;;;;;4987800;28;20050;-73
2023/09/18 01:57:01;;;;;;;7.72;3.38;;;;;;;;;;4982208;28;20038;-78
2023/09/18 01:59:46;;;;;;;5.82;2.95;;;;;;;;;;4995395;28;20096;-76
2023/09/18 02:02:32;;;;;;;6.20;2.80;;;;;;;;;;4995254;28;20436;-79
2023/09/18 02:05:17;;;;;;;8.68;3.13;;;;;;;;;;4995529;28;20040;-78
2023/09/18 02:08:02;;;;;;;5.63;3.17;;;;;;;;;;4994879;28;20568;-78
2023/09/18 02:10:48;;;;;;;7.20;3.03;;;;;;;;;;4983200;28;20466;-78
2023/09/18 02:13:33;;;;;;;9.35;2.70;;;;;;;;;;4994851;28;20029;-68
2023/09/18 02:16:20;;;;;;;7.55;3.05;;;;;;;;;;4995207;28;20022;-81
2023/09/18 02:19:06;;;;;;;9.10;3.00;;;;;;;;;;4995305;28;20038;-78
2023/09/18 02:21:52;;;;;;;8.00;2.88;;;;;;;;;;4992579;28;20077;-79
2023/09/18 02:24:37;;;;;;;8.52;3.78;;;;;;;;;;4994849;28;20106;-77
2023/09/18 02:27:23;;;;;;;7.07;3.78;;;;;;;;;;4981189;28;20042;-78
2023/09/18 02:30:09;;;;;;;10.20;3.20;;;;;;;;;;4994949;28;20037;-77
2023/09/18 02:32:55;;;;;;;6.35;3.05;;;;;;;;;;4994797;28;20052;-71
2023/09/18 02:35:40;;;;;;;5.28;2.60;;;;;;;;;;4994218;28;20044;-71
2023/09/18 02:38:26;;;;;;;7.93;3.08;;;;;;;;;;4982319;28;20037;-71
2023/09/18 02:41:11;;;;;;;7.65;3.30;;;;;;;;;;4994641;28;20108;-71
2023/09/18 02:43:56;;;;;;;16.00;3.33;;;;;;;;;;4994795;28;20466;-72
2023/09/18 02:46:43;;;;;;;9.20;2.80;;;;;;;;;;4998705;28;20044;-72
2023/09/18 02:49:29;;;;;;;15.27;4.22;;;;;;;;;;4994343;28;20084;-69
2023/09/18 02:52:14;;;;;;;8.82;2.75;;;;;;;;;;4994001;28;20505;-76
2023/09/18 02:55:00;;;;;;;7.95;3.20;;;;;;;;;;4995541;28;20041;-77
2023/09/18 02:57:45;;;;;;;5.03;2.63;;;;;;;;;;4994609;28;20125;-78
2023/09/18 03:00:30;;;;;;;12.65;3.45;;;;;;;;;;4981609;28;20481;-77
2023/09/18 03:03:16;;;;;;;18.17;4.07;;;;;;;;;;4994813;28;20085;-77
2023/09/18 03:06:02;;;;;;;9.68;2.75;;;;;;;;;;4981088;28;20084;-77
2023/09/18 03:08:48;;;;;;;9.32;2.80;;;;;;;;;;4994125;28;20147;-67
2023/09/18 03:11:33;;;;;;;9.90;3.10;;;;;;;;;;5016935;23;20096;-70
2023/09/18 03:14:18;;;;;;;16.60;3.55;;;;;;;;;;5002924;28;20040;-71
2023/09/18 03:17:04;;;;;;;7.40;2.35;;;;;;;;;;5008613;28;20531;-69
2023/09/18 03:19:49;;;;;;;13.38;3.13;;;;;;;;;;5011163;28;20033;-70
2023/09/18 03:22:34;;;;;;;7.75;3.08;;;;;;;;;;5010844;28;20069;-69
2023/09/18 03:25:20;;;;;;;13.57;3.35;;;;;;;;;;4998936;28;20032;-70
2023/09/18 03:28:05;;;;;;;10.18;3.40;;;;;;;;;;4994189;28;20022;-75
2023/09/18 03:30:50;;;;;;;11.27;4.03;;;;;;;;;;4993945;28;20033;-76
2023/09/18 03:33:36;;;;;;;11.13;2.90;;;;;;;;;;4994520;28;20036;-74
2023/09/18 03:36:23;;;;;;;9.07;2.70;;;;;;;;;;5007389;28;20487;-76
2023/09/18 03:39:09;;;;;;;8.90;2.83;;;;;;;;;;5007820;28;20224;-78
2023/09/18 03:41:54;;;;;;;14.00;3.05;;;;;;;;;;4993899;28;20036;-77
2023/09/18 03:44:40;;;;;;;9.85;2.88;;;;;;;;;;5007786;28;20044;-74
2023/09/18 03:47:25;;;;;;;7.53;2.10;;;;;;;;;;4998112;28;20026;-71
2023/09/18 03:50:11;;;;;;;11.02;3.40;;;;;;;;;;4980406;28;20034;-74
2023/09/18 03:52:56;;;;;;;10.30;3.05;;;;;;;;;;5010356;28;20042;-73
2023/09/18 03:55:41;;;;;;;8.93;3.47;;;;;;;;;;5011479;28;20033;-74
2023/09/18 03:58:26;;;;;;;14.57;3.42;;;;;;;;;;5011295;28;20025;-73
2023/09/18 04:01:12;;;;;;;9.05;3.15;;;;;;;;;;4997531;28;20465;-75
2023/09/18 04:03:58;;;;;;;9.65;2.88;;;;;;;;;;5011172;28;20153;-72
2023/09/18 04:06:46;;;;;;;10.05;3.20;;;;;;;;;;5010819;28;20049;-69
2023/09/18 04:09:31;;;;;;;9.73;3.20;;;;;;;;;;4997326;28;20037;-68
2023/09/18 04:12:16;;;;;;;13.15;3.67;;;;;;;;;;4997587;28;20436;-69
2023/09/18 04:15:02;;;;;;;9.30;2.90;;;;;;;;;;5011077;28;20030;-69
2023/09/18 04:17:47;;;;;;;19.52;3.17;;;;;;;;;;4997400;28;20045;-69
2023/09/18 04:20:33;;;;;;;11.00;3.72;;;;;;;;;;4997363;28;20066;-68
2023/09/18 04:23:22;;;;;;;8.27;2.92;;;;;;;;;;4983178;28;20061;-65
2023/09/18 04:26:07;;;;;;;;;;;;;;;;;;4994371;28;20429;-70
2023/09/18 04:28:52;;;;;;;9.02;3.28;;;;;;;;;;4996968;28;19930;-71
2023/09/18 04:31:38;;;;;;;11.60;3.33;;;;;;;;;;5010654;28;20041;-69
2023/09/18 04:34:23;;;;;;;10.75;3.05;;;;;;;;;;4997059;28;20044;-69
2023/09/18 04:37:08;;;;;;;8.68;3.20;;;;;;;;;;5010496;28;20026;-69
2023/09/18 04:39:53;;;;;;;7.05;3.42;;;;;;;;;;5010563;28;20033;-72
2023/09/18 04:42:42;;;;;;;7.85;2.95;;;;;;;;;;5009681;28;20041;-70
2023/09/18 04:45:27;;;;;;;11.25;2.60;;;;;;;;;;4977711;28;20034;-74
2023/09/18 04:48:13;;;;;;;11.63;2.72;;;;;;;;;;5012289;28;20670;-75
2023/09/18 04:50:59;;;;;;;8.02;2.92;;;;;;;;;;4996422;28;20061;-77
2023/09/18 04:53:44;;;;;;;11.40;3.67;;;;;;;;;;4989952;28;20488;-75
2023/09/18 04:56:29;;;;;;;9.70;3.42;;;;;;;;;;5000918;28;20033;-76
2023/09/18 04:59:15;;;;;;;9.25;3.00;;;;;;;;;;5010143;28;20056;-62
2023/09/18 05:02:01;;;;;;;12.35;3.33;;;;;;;;;;5009728;28;20065;-74
2023/09/18 05:04:46;;;;;;;13.30;2.58;;;;;;;;;;4996353;28;20052;-74
2023/09/18 05:07:32;;;;;;;9.77;3.65;;;;;;;;;;4996268;28;20029;-74
2023/09/18 05:10:17;;;;;;;10.70;3.25;;;;;;;;;;4996071;28;20119;-74
2023/09/18 05:13:03;;;;;;;7.65;2.92;;;;;;;;;;5009758;28;20056;-74
2023/09/18 05:15:48;;;;;;;15.18;2.97;;;;;;;;;;4983765;28;20108;-78
2023/09/18 05:18:33;;;;;;;14.07;3.80;;;;;;;;;;5007768;28;20760;-73
2023/09/18 05:21:24;;;;;;;9.45;3.47;;;;;;;;;;4995833;28;20033;-68
2023/09/18 05:24:10;;;;;;;9.25;3.63;;;;;;;;;;4995806;28;20030;-68
2023/09/18 05:26:55;;;;;;;11.38;3.47;;;;;;;;;;5009320;28;20132;-68
2023/09/18 05:29:40;;;;;;;7.35;3.10;;;;;;;;;;4980943;28;20062;-71
2023/09/18 05:32:25;;;;;;;10.18;3.53;;;;;;;;;;5008722;28;20030;-69
2023/09/18 05:35:12;;;;;;;11.32;3.33;;;;;;;;;;5009124;28;20029;-69
2023/09/18 05:37:58;;;;;;;8.00;4.10;;;;;;;;;;4994934;28;20048;-70
2023/09/18 05:40:44;;;;;;;11.82;2.97;;;;;;;;;;5008974;28;20033;-75
2023/09/18 05:43:30;;;;;;;7.45;3.47;;;;;;;;;;5009340;28;20428;-75
2023/09/18 05:46:15;;;;;;;9.55;4.18;;;;;;;;;;5013481;28;20029;-74
2023/09/18 05:49:01;;;;;;;10.88;3.13;;;;;;;;;;5008867;28;20034;-75
2023/09/18 05:51:48;;;;;;;8.40;3.50;;;;;;;;;;4995272;28;20029;-74
2023/09/18 05:54:34;;;;;;;9.38;2.78;;;;;;;;;;4984042;28;20040;-70
2023/09/18 05:57:19;;;;;;;8.40;3.25;;;;;;;;;;4974982;28;20054;-67
2023/09/18 06:00:05;;;;;;;7.15;3.47;;;;;;;;;;5004455;28;20018;-68
2023/09/18 06:02:53;;;;;;;9.00;2.88;;;;;;;;;;5005934;28;20079;-67
2023/09/18 06:05:38;;;;;;;12.02;4.43;;;;;;;;;;4992639;28;20034;-68
2023/09/18 06:08:26;;;;;;;12.00;3.97;;;;;;;;;;5007315;28;20030;-67
2023/09/18 06:11:11;;;;;;;10.52;2.95;;;;;;;;;;4994018;28;20069;-68
2023/09/18 06:13:56;;;;;;;7.10;2.85;;;;;;;;;;5007510;28;20037;-76
2023/09/18 06:16:41;;;;;;;9.00;3.83;;;;;;;;;;5006407;28;20034;-71
2023/09/18 06:19:27;;;;;;;6.57;2.33;;;;;;;;;;5005185;28;20551;-69
2023/09/18 06:22:12;;;;;;;7.90;3.42;;;;;;;;;;4991695;28;20085;-70
2023/09/18 06:24:57;;;;;;;9.25;2.80;;;;;;;;;;5005642;28;20056;-72
2023/09/18 06:27:43;;;;;;;9.80;2.92;;;;;;;;;;4991926;28;20030;-71
2023/09/18 06:30:30;;;;;;;11.32;3.65;;;;;;;;;;4992032;28;20034;-76
2023/09/18 06:33:16;;;;;;;7.05;2.33;;;;;;;;;;4992387;28;20495;-66
2023/09/18 06:36:03;;;;;;;5.60;2.75;;;;;;;;;;4994276;28;20087;-64
2023/09/18 06:38:48;;;;;;;9.82;3.45;;;;;;;;;;4994301;28;20416;-64
2023/09/18 06:41:33;;;;;;;11.45;3.85;;;;;;;;;;5007972;28;20037;-65
2023/09/18 06:44:19;;;;;;;10.85;2.80;;;;;;;;;;5008285;28;20037;-65
2023/09/18 06:47:04;;;;;;;10.82;3.13;;;;;;;;;;5011615;28;20057;-67
2023/09/18 06:49:49;;;;;;;11.63;3.25;;;;;;;;;;5007536;28;20478;-73
2023/09/18 06:52:35;;;;;;;7.22;3.50;;;;;;;;;;4994161;28;20038;-74
2023/09/18 06:55:20;;;;;;;9.25;3.20;;;;;;;;;;5007210;28;20273;-76
2023/09/18 06:58:05;;;;;;;7.97;3.03;;;;;;;;;;4979920;28;20033;-74
2023/09/18 07:00:51;;;;;;;8.85;3.45;;;;;;;;;;4993872;28;20425;-76
2023/09/18 07:03:36;;;;;;;6.45;2.90;;;;;;;;;;4978790;28;20018;-75
2023/09/18 07:06:21;;;;;;;9.90;3.15;;;;;;;;;;5007610;28;20061;-76
2023/09/18 07:09:07;;;;;;;13.07;2.85;;;;;;;;;;4982357;28;20030;-71
2023/09/18 07:11:52;;;;;;;7.68;3.58;;;;;;;;;;4993857;28;20107;-76
2023/09/18 07:14:37;;;;;;;9.00;3.13;;;;;;;;;;4973943;28;20126;-77
2023/09/18 07:17:23;;;;;;;6.93;2.40;;;;;;;;;;4993357;28;20096;-77
2023/09/18 07:20:13;;;;;;;11.43;2.72;;;;;;;;;;4974670;28;20069;-77
2023/09/18 07:22:59;;;;;;;8.75;2.67;;;;;;;;;;4993554;28;20540;-75
2023/09/18 07:25:44;;;;;;;7.50;2.30;;;;;;;;;;4981205;28;20030;-75
2023/09/18 07:28:29;;;;;;;7.38;3.03;;;;;;;;;;5011120;28;20026;-71
2023/09/18 07:31:14;;;;;;;7.18;2.47;;;;;;;;;;4997491;28;20026;-71
2023/09/18 07:34:00;;;;;;;7.50;1.65;;;;;;;;;;5011757;28;20096;-68
2023/09/18 07:36:45;;;;;;;6.97;2.15;;;;;;;;;;5011960;28;20543;-70
2023/09/18 07:39:30;;;;;;;7.15;1.90;;;;;;;;;;4997526;28;20362;-71
2023/09/18 07:42:16;;;;;;;5.15;1.55;;;;;;;;;;5002686;28;20030;-70
2023/09/18 07:45:01;;;;;;;3.22;1.45;;;;;;;;;;4984045;28;20030;-76
2023/09/18 07:47:46;;;;;;;2.90;1.70;;;;;;;;;;5000282;28;20382;-75
2023/09/18 07:50:33;;;;;;;5.03;1.65;;;;;;;;;;4977347;28;20044;-78
2023/09/18 07:53:18;;;;;;;2.53;1.35;;;;;;;;;;5011041;28;20083;-75
2023/09/18 07:56:06;;;;;;;4.57;1.55;;;;;;;;;;5004011;28;20060;-74
2023/09/18 07:58:52;;;;;;;4.80;1.70;;;;;;;;;;4984612;28;20624;-74
2023/09/18 08:01:37;;;;;;;2.13;1.33;;;;;;;;;;5011338;28;20091;-74
2023/09/18 08:04:22;;;;;;;5.35;1.25;;;;;;;;;;4997070;28;20044;-76
2023/09/18 08:07:07;;;;;;;5.10;1.42;;;;;;;;;;5010250;28;20084;-74
2023/09/18 08:09:53;;;;;;;3.53;1.73;;;;;;;;;;4997044;28;20104;-75
2023/09/18 08:12:38;;;;;;;8.10;1.45;;;;;;;;;;4996959;28;20500;-74
2023/09/18 08:15:23;;;;;;;4.45;1.40;;;;;;;;;;4997005;28;20036;-75
2023/09/18 08:18:08;;;;;;;4.32;1.58;;;;;;;;;;5002458;28;20021;-73
2023/09/18 08:20:58;;;;;;;3.95;1.95;;;;;;;;;;4997464;28;20028;-73
2023/09/18 08:23:43;;;;;;;5.28;1.40;;;;;;;;;;4996180;28;20080;-73
2023/09/18 08:26:28;;;;;;;3.67;1.48;;;;;;;;;;4967927;28;20026;-74
2023/09/18 08:29:13;;;;;;;3.58;1.83;;;;;;;;;;5005893;28;20025;-74
2023/09/18 08:31:59;;;;;;;4.43;2.05;;;;;;;;;;5010630;28;20541;-74
2023/09/18 08:34:44;;;;;;;6.82;1.50;;;;;;;;;;4996986;28;20037;-74
2023/09/18 08:37:29;;;;;;;4.35;1.00;;;;;;;;;;4996134;28;20477;-74
2023/09/18 08:40:16;;;;;;;6.13;1.95;;;;;;;;;;5010508;28;20389;-74
2023/09/18 08:43:03;;;;;;;5.47;1.48;;;;;;;;;;4996823;28;20029;-77
2023/09/18 08:45:53;;;;;;;3.10;1.55;;;;;;;;;;4999190;28;20107;-75
2023/09/18 08:48:38;;;;;;;5.38;1.65;;;;;;;;;;4984545;28;20029;-76
2023/09/18 08:51:24;;;;;;;5.53;1.55;;;;;;;;;;4996651;28;20037;-74
2023/09/18 08:54:10;;;;;;;6.50;1.80;;;;;;;;;;5021121;28;20088;-75
2023/09/18 08:56:55;;;;;;;3.75;1.48;;;;;;;;;;4997488;28;20022;-74
2023/09/18 08:59:41;;;;;;;6.57;1.50;;;;;;;;;;5010405;28;20042;-75
2023/09/18 09:02:26;;;;;;;6.13;1.38;;;;;;;;;;4996883;28;20037;-69
2023/09/18 09:05:11;;;;;;;2.90;1.17;;;;;;;;;;4996602;28;20117;-72
2023/09/18 09:07:57;;;;;;;5.22;1.67;;;;;;;;;;4993175;28;20473;-70
2023/09/18 09:10:42;;;;;;;6.07;1.52;;;;;;;;;;4993677;28;20129;-72
2023/09/18 09:13:27;;;;;;;4.20;1.50;;;;;;;;;;4993574;28;20029;-70
2023/09/18 09:16:13;;;;;;;2.05;1.42;;;;;;;;;;5007786;28;20029;-67
2023/09/18 09:18:58;;;;;;;3.88;1.20;;;;;;;;;;4995532;28;20052;-70
2023/09/18 09:21:44;;;;;;;5.95;1.63;;;;;;;;;;4977043;28;20034;-69
2023/09/18 09:24:42;;;;;;;7.60;1.80;;;;;;;;;;4993917;28;20072;-72
2023/09/18 09:27:28;;;;;;;3.77;1.30;;;;;;;;;;4981040;28;20485;-68
2023/09/18 09:30:23;;;;;;;8.85;1.65;;;;;;;;;;4995878;28;20072;-69
2023/09/18 09:33:12;;;;;;;3.72;1.42;;;;;;;;;;4995861;28;20370;-70
2023/09/18 09:35:57;;;;;;;3.72;1.17;;;;;;;;;;4996126;28;20026;-73
2023/09/18 09:38:44;;;;;;;3.67;1.40;;;;;;;;;;4976297;28;20057;-73
2023/09/18 09:41:30;;;;;;;3.30;1.50;;;;;;;;;;4994414;28;20029;-73
2023/09/18 09:44:16;;;;;;;4.07;1.60;;;;;;;;;;4995293;28;20120;-72
2023/09/18 09:47:05;;;;;;;3.10;1.38;;;;;;;;;;4999440;28;20480;-73
2023/09/18 09:49:51;;;;;;;3.15;1.15;;;;;;;;;;4994417;28;20037;-74
2023/09/18 09:52:40;;;;;;;5.13;1.90;;;;;;;;;;4976169;28;20031;-70
2023/09/18 09:55:25;;;;;;;4.65;1.45;;;;;;;;;;5013386;28;20022;-67
2023/09/18 09:58:11;;;;;;;5.28;1.60;;;;;;;;;;4995605;28;20056;-70
2023/09/18 10:00:59;;;;;;;5.55;1.95;;;;;;;;;;5008130;28;20492;-70
2023/09/18 10:03:45;;;;;;;8.02;2.63;;;;;;;;;;4992832;28;20509;-70
2023/09/18 10:06:32;;;;;;;4.75;1.63;;;;;;;;;;5006477;28;20041;-69
2023/09/18 10:09:20;;;;;;;5.65;1.80;;;;;;;;;;5006774;28;20037;-70
2023/09/18 10:12:10;;;;;;;4.70;1.88;;;;;;;;;;4980518;28;20032;-66
2023/09/18 10:14:56;;;;;;;2.00;1.40;;;;;;;;;;4994363;28;20346;-65
2023/09/18 10:17:44;;;;;;;4.95;1.70;;;;;;;;;;4994678;28;20054;-64
2023/09/18 10:20:30;;;;;;;6.57;1.98;;;;;;;;;;5008688;28;20037;-64
2023/09/18 10:23:23;;;;;;;8.48;3.45;;;;;;;;;;5008620;28;20045;-64
2023/09/18 10:26:09;;;;;;;10.00;2.38;;;;;;;;;;4979465;28;20040;-67
2023/09/18 10:28:58;;;;;;;5.80;1.60;;;;;;;;;;4994852;28;20535;-64
2023/09/18 10:31:44;;;;;;;7.45;1.60;;;;;;;;;;4975519;28;20074;-76
2023/09/18 10:34:30;;;;;;;2.35;1.42;;;;;;;;;;5005504;28;20681;-76
2023/09/18 10:37:16;;;;;;;6.75;1.95;;;;;;;;;;5008458;28;20026;-74
2023/09/18 10:40:02;;;;;;;6.45;2.20;;;;;;;;;;4977629;28;20023;-74
2023/09/18 10:42:47;;;;;;;4.75;2.08;;;;;;;;;;4994836;28;20080;-75
2023/09/18 10:45:33;;;;;;;5.32;1.60;;;;;;;;;;4994751;28;20489;-76
2023/09/18 10:48:19;;;;;;;3.95;1.85;;;;;;;;;;4995968;28;20546;-72
2023/09/18 10:51:05;;;;;;;5.35;1.67;;;;;;;;;;4994347;28;20037;-72
2023/09/18 10:53:52;;;;;;;3.67;1.80;;;;;;;;;;4975867;28;20037;-72
2023/09/18 10:56:39;;;;;;;3.78;1.75;;;;;;;;;;4995625;28;20025;-70
2023/09/18 10:59:25;;;;;;;6.32;2.15;;;;;;;;;;4993094;28;20040;-71
2023/09/18 11:02:10;;;;;;;3.78;2.08;;;;;;;;;;5006413;28;20065;-71
2023/09/18 11:04:55;;;;;;;3.58;1.63;;;;;;;;;;5006543;28;20037;-71
2023/09/18 11:07:41;;;;;;;9.50;2.45;;;;;;;;;;4994958;28;20034;-75
2023/09/18 11:10:26;;;;;;;4.82;1.60;;;;;;;;;;4994171;28;20095;-74
2023/09/18 11:13:13;;;;;;;5.32;2.33;;;;;;;;;;4994381;28;20065;-78
2023/09/18 11:16:00;;;;;;;7.78;1.90;;;;;;;;;;5008084;28;20164;-75
2023/09/18 11:18:55;;;;;;;4.30;1.77;;;;;;;;;;4993334;28;20099;-76
2023/09/18 11:21:40;;;;;;;4.13;1.60;;;;;;;;;;4994211;28;20046;-75
2023/09/18 11:24:28;;;;;;;8.98;1.95;;;;;;;;;;4989731;28;20046;-75
2023/09/18 11:27:14;;;;;;;4.07;1.65;;;;;;;;;;4991155;28;20129;-74
2023/09/18 11:30:00;;;;;;;5.15;1.67;;;;;;;;;;4994223;28;20064;-76
2023/09/18 11:32:45;;;;;;;2.50;1.58;;;;;;;;;;5007875;28;20048;-74
2023/09/18 11:35:32;;;;;;;2.25;1.23;;;;;;;;;;5007957;28;20116;-76
2023/09/18 11:38:17;;;;;;;5.32;2.13;;;;;;;;;;4993931;28;20044;-75
2023/09/18 11:41:25;;;;;;;5.20;2.17;;;;;;;;;;4984152;28;20324;-76
2023/09/18 11:44:10;;;;;;;4.13;1.65;;;;;;;;;;4994144;28;20030;-71
2023/09/18 11:46:56;;;;;;;7.00;1.63;;;;;;;;;;4998234;28;20037;-67
2023/09/18 11:49:46;;;;;;;4.53;1.50;;;;;;;;;;5007416;28;20401;-67
2023/09/18 11:52:32;;;;;;;3.10;1.58;;;;;;;;;;4993332;28;20394;-69
2023/09/18 11:55:17;;;;;;;6.53;1.40;;;;;;;;;;5021257;28;20088;-66
2023/09/18 11:58:04;;;;;;;4.80;1.77;;;;;;;;;;4993991;28;20099;-68
2023/09/18 12:00:55;;;;;;;4.97;1.38;;;;;;;;;;4993923;28;20084;-68
2023/09/18 12:03:41;;;;;;;5.75;2.05;;;;;;;;;;5007784;28;20118;-75
2023/09/18 12:06:26;;;;;;;6.50;2.72;;;;;;;;;;5007254;28;20557;-76
2023/09/18 12:09:12;;;;;;;3.47;1.65;;;;;;;;;;4974265;28;20038;-77
2023/09/18 12:12:03;;;;;;;7.63;1.92;;;;;;;;;;5006050;28;20052;-74
2023/09/18 12:14:48;;;;;;;3.92;1.77;;;;;;;;;;4999112;28;20389;-74
2023/09/18 12:17:34;;;;;;;3.30;1.35;;;;;;;;;;4997561;28;20037;-76
2023/09/18 12:20:19;;;;;;;3.17;1.35;;;;;;;;;;5010891;28;20038;-70
2023/09/18 12:23:07;;;;;;;4.43;1.80;;;;;;;;;;4997238;28;20033;-76
2023/09/18 12:25:57;;;;;;;4.53;1.73;;;;;;;;;;4986850;28;20117;-74
2023/09/18 12:28:43;;;;;;;4.32;1.55;;;;;;;;;;5010358;28;20520;-74
2023/09/18 12:31:29;;;;;;;4.28;1.92;;;;;;;;;;5010461;28;20049;-75
2023/09/18 12:34:15;;;;;;;3.83;1.48;;;;;;;;;;5009869;28;20034;-74
2023/09/18 12:37:01;;;;;;;2.08;1.75;;;;;;;;;;4996860;28;20034;-75
2023/09/18 12:39:46;;;;;;;2.10;1.30;;;;;;;;;;4996171;28;20033;-72
2023/09/18 12:42:31;;;;;;;3.47;1.50;;;;;;;;;;4996534;28;20049;-73
2023/09/18 12:45:17;;;;;;;4.97;2.03;;;;;;;;;;4984464;28;20057;-74
2023/09/18 12:48:03;;;;;;;3.80;1.38;;;;;;;;;;5000009;28;20041;-76
2023/09/18 12:50:53;;;;;;;2.85;1.20;;;;;;;;;;5009816;28;20117;-75
2023/09/18 12:53:38;;;;;;;4.05;1.63;;;;;;;;;;5016499;28;20048;-76
2023/09/18 12:56:24;;;;;;;2.35;1.60;;;;;;;;;;5000761;28;20056;-74
2023/09/18 12:59:10;;;;;;;2.65;1.35;;;;;;;;;;5009716;28;20042;-75
2023/09/18 13:01:55;;;;;;;3.90;1.60;;;;;;;;;;4996406;28;20461;-73
2023/09/18 13:04:40;;;;;;;3.42;1.83;;;;;;;;;;5009946;28;20045;-74
2023/09/18 13:07:27;;;;;;;3.45;1.20;;;;;;;;;;5009994;28;20045;-73
2023/09/18 13:10:13;;;;;;;2.80;1.30;;;;;;;;;;4995835;28;20046;-75
2023/09/18 13:12:59;;;;;;;3.22;1.20;;;;;;;;;;4996630;28;20724;-74
2023/09/18 13:15:48;;;;;;;2.83;1.50;;;;;;;;;;5009538;28;20030;-72
2023/09/18 13:18:33;;;;;;;4.60;1.40;;;;;;;;;;4994999;28;20034;-69
2023/09/18 13:21:19;;;;;;;3.95;1.38;;;;;;;;;;4976067;28;20029;-69
2023/09/18 13:24:05;;;;;;;3.08;1.48;;;;;;;;;;5007280;28;20030;-69
2023/09/18 13:26:52;;;;;;;1.00;0.90;;;;;;;;;;4990236;28;20042;-68
2023/09/18 13:29:38;;;;;;;3.83;1.60;;;;;;;;;;4996135;28;20485;-69
2023/09/18 13:32:23;;;;;;;3.85;1.30;;;;;;;;;;5009743;28;20034;-70
2023/09/18 13:35:09;;;;;;;2.67;1.65;;;;;;;;;;4995328;28;20045;-64
2023/09/18 13:37:54;;;;;;;3.45;1.85;;;;;;;;;;5009174;28;20030;-72
2023/09/18 13:40:40;;;;;;;5.38;1.70;;;;;;;;;;5008740;28;20480;-72
2023/09/18 13:43:27;;;;;;;3.50;1.10;;;;;;;;;;4995332;28;20062;-73
2023/09/18 13:46:12;;;;;;;3.85;1.40;;;;;;;;;;5012977;28;20476;-72
2023/09/18 13:48:57;;;;;;;1.95;1.30;;;;;;;;;;5008702;28;20080;-73
2023/09/18 13:51:43;;;;;;;6.00;1.50;;;;;;;;;;5008687;28;20029;-64
2023/09/18 13:54:29;;;;;;;2.90;1.30;;;;;;;;;;5010891;28;20125;-73
2023/09/18 13:57:14;;;;;;;3.08;1.10;;;;;;;;;;4975382;28;20053;-66
2023/09/18 14:00:00;;;;;;;2.88;1.63;;;;;;;;;;4991644;28;22063;-67
2023/09/18 14:02:46;;;;;;;2.78;1.13;;;;;;;;;;5008053;28;20045;-66
2023/09/18 14:05:33;;;;;;;1.30;1.20;;;;;;;;;;5008084;28;20109;-67
2023/09/18 14:08:18;;;;;;;3.75;1.30;;;;;;;;;;5009205;28;20033;-66
2023/09/18 14:11:06;;;;;;;5.38;1.10;;;;;;;;;;5008583;28;20469;-69
2023/09/18 14:13:51;;;;;;;3.60;1.20;;;;;;;;;;4994659;28;20037;-73
2023/09/18 14:16:36;;;;;;;2.42;1.30;;;;;;;;;;4994634;28;20042;-72
2023/09/18 14:19:21;;;;;;;3.40;1.40;;;;;;;;;;4986232;28;20025;-75
2023/09/18 14:22:08;;;;;;;3.28;1.10;;;;;;;;;;4994319;28;20448;-74
2023/09/18 14:24:53;;;;;;;4.45;1.60;;;;;;;;;;4986980;28;20041;-74
2023/09/18 14:27:39;;;;;;;3.05;1.10;;;;;;;;;;4991434;28;20026;-73
2023/09/18 14:30:29;;;;;;;1.55;1.17;;;;;;;;;;5008087;28;20038;-65
2023/09/18 14:33:15;;;;;;;2.95;1.20;;;;;;;;;;5008773;28;20040;-70
2023/09/18 14:36:00;;;;;;;3.75;1.67;;;;;;;;;;5008751;28;20052;-68
2023/09/18 14:38:46;;;;;;;2.08;1.58;;;;;;;;;;5009004;28;20044;-70
2023/09/18 14:41:31;;;;;;;3.70;1.48;;;;;;;;;;4979833;28;20038;-70
2023/09/18 14:44:17;;;;;;;4.38;1.30;;;;;;;;;;4994707;28;20457;-68
2023/09/18 14:47:02;;;;;;;2.05;1.45;;;;;;;;;;5012210;28;20037;-72
2023/09/18 14:49:47;;;;;;;4.00;1.20;;;;;;;;;;4993367;28;20432;-72
2023/09/18 14:52:32;;;;;;;3.08;1.30;;;;;;;;;;5007306;28;20485;-75
2023/09/18 14:55:18;;;;;;;2.65;1.00;;;;;;;;;;4980622;28;20057;-75
2023/09/18 14:58:03;;;;;;;3.25;1.55;;;;;;;;;;5008113;28;20021;-74
2023/09/18 15:00:49;;;;;;;1.52;1.00;;;;;;;;;;5008009;28;20026;-75
2023/09/18 15:03:34;;;;;;;1.27;1.00;;;;;;;;;;5007521;28;20033;-73
2023/09/18 15:06:19;;;;;;;3.35;1.10;;;;;;;;;;4994126;28;20040;-66
2023/09/18 15:09:07;;;;;;;3.08;1.33;;;;;;;;;;5007239;28;20057;-66
2023/09/18 15:11:52;;;;;;;4.82;1.40;;;;;;;;;;5007400;28;20073;-67
2023/09/18 15:14:37;;;;;;;4.50;1.75;;;;;;;;;;4999170;28;20026;-66
2023/09/18 15:17:22;;;;;;;4.45;1.55;;;;;;;;;;5007845;28;20050;-67
2023/09/18 15:20:11;;;;;;;5.97;1.42;;;;;;;;;;5008399;28;20084;-67
2023/09/18 15:22:57;;;;;;;2.05;1.17;;;;;;;;;;5008007;28;20084;-66
2023/09/18 15:25:42;;;;;;;3.65;1.02;;;;;;;;;;4978176;28;20052;-73
2023/09/18 15:28:28;;;;;;;1.73;1.15;;;;;;;;;;5007161;28;20033;-72
2023/09/18 15:31:14;;;;;;;3.05;1.50;;;;;;;;;;5004350;28;20116;-71
2023/09/18 15:33:59;;;;;;;3.92;1.05;;;;;;;;;;4991762;28;20108;-71
2023/09/18 15:36:44;;;;;;;4.97;1.70;;;;;;;;;;5006674;28;20058;-70
2023/09/18 15:39:30;;;;;;;1.95;1.30;;;;;;;;;;5007131;28;20367;-69
2023/09/18 15:42:15;;;;;;;3.05;1.60;;;;;;;;;;5006988;28;20026;-73
2023/09/18 15:45:01;;;;;;;3.78;1.02;;;;;;;;;;4993204;28;20036;-73
2023/09/18 15:47:46;;;;;;;1.92;1.25;;;;;;;;;;4995999;28;20049;-75
2023/09/18 15:50:32;;;;;;;2.70;1.00;;;;;;;;;;4997699;28;20038;-75
2023/09/18 15:53:17;;;;;;;2.75;1.60;;;;;;;;;;5000647;28;20368;-75
2023/09/18 15:56:02;;;;;;;6.45;1.27;;;;;;;;;;5005279;28;20026;-75
2023/09/18 15:58:48;;;;;;;2.50;1.63;;;;;;;;;;5011497;28;20053;-75
2023/09/18 16:01:37;;;;;;;1.23;1.02;;;;;;;;;;5009107;28;20105;-67
2023/09/18 16:04:22;;;;;;;4.68;1.40;;;;;;;;;;5010252;28;20033;-70
2023/09/18 16:07:12;;;;;;;13.73;2.80;;;;;;;;;;4997699;28;20037;-69
2023/09/18 16:09:57;;;;;;;2.53;1.45;;;;;;;;;;4997422;28;20034;-69
2023/09/18 16:12:42;;;;;;;4.50;1.45;;;;;;;;;;5010723;28;20374;-69
2023/09/18 16:15:46;;;;;;;4.20;1.42;;;;;;;;;;4987198;28;20048;-69
2023/09/18 16:18:31;;;;;;;6.97;1.77;;;;;;;;;;5011015;28;20045;-69
2023/09/18 16:21:17;;;;;;;6.10;2.22;;;;;;;;;;5010542;28;20034;-72
2023/09/18 16:24:06;;;;;;;3.15;1.48;;;;;;;;;;4995880;28;20041;-74
2023/09/18 16:26:55;;;;;;;3.03;1.30;;;;;;;;;;4991067;28;20152;-74
2023/09/18 16:29:40;;;;;;;5.13;1.73;;;;;;;;;;4982464;28;20041;-74
2023/09/18 16:32:28;;;;;;;3.17;1.40;;;;;;;;;;5010698;28;20026;-73